Change the Weather History Date:

Sunday, November 27, 2011

  Actual Average Record
Temperature  
Mean Temperature 34 °F -  
Max Temperature 37 °F 33 °F 68 °F (1998)
Min Temperature 30 °F 18 °F -16 °F (2014)
Degree Days  
Heating Degree Days 32    
Moisture  
Dew Point 27 °F    
Average Humidity 79    
Maximum Humidity 87    
Minimum Humidity 70    
Precipitation  
Precipitation 0.00 in - - ()
Sea Level Pressure  
Sea Level Pressure 30.13 in    
Wind  
Wind Speed 14 mph (NNW)    
Max Wind Speed 20 mph    
Max Gust Speed 26 mph    
Visibility 10 miles    
Events      
Averages and records for this station are not official NWS values.
T = Trace of Precipitation, MM = Missing Value Source: NWS Daily Summary

Daily Weather History Graph

Daily Weather History Graph

Search for Another Location

Airport or City:

Trip Planner

Search our weather history database for the weather conditions in past years. The results will help you decide how hot, cold, wet, or windy it might be!

Date:

Astronomy

Nov. 27, 2011 Rise Set
Actual Time 7:23 AM CST 4:37 PM CST
Civil Twilight 6:51 AM CST 5:09 PM CST
Nautical Twilight 6:15 AM CST 5:45 PM CST
Astronomical Twilight 5:40 AM CST 6:20 PM CST
Moon 9:49 AM CST 7:16 PM CST
Length of Visible Light 10h 18m
Length of Day
9h 14m
Waxing Crescent, 8% of the Moon is Illuminated
Nov 27
Waxing Crescent
Dec 2
First Quarter
Dec 10
Full
Dec 17
Last Quarter
Dec 24
New

Hourly Weather History & Observations

Time (CST) Temp. Windchill Dew Point Humidity Pressure Visibility Wind Dir Wind Speed Gust Speed Precip Events Conditions
12:14 AM 37.4 °F 28.5 °F 32.0 °F 81% 30.03 in 10.0 mi NW 15.0 mph - N/A   Overcast
12:34 AM 35.6 °F 25.2 °F 32.0 °F 87% 30.03 in 10.0 mi NW 18.4 mph 24.2 mph N/A   Overcast
1:34 AM 35.6 °F 25.5 °F 30.2 °F 81% 30.04 in 10.0 mi NW 17.3 mph 25.3 mph N/A   Overcast
1:54 AM 35.6 °F 24.8 °F 30.2 °F 81% 30.05 in 10.0 mi NW 19.6 mph - N/A   Overcast
2:33 AM 35.6 °F 25.2 °F 30.2 °F 81% 30.06 in 10.0 mi NW 18.4 mph - N/A   Drizzle
2:54 AM 35.6 °F 26.6 °F 30.2 °F 81% 30.06 in 10.0 mi NW 13.8 mph - N/A   Overcast
3:14 AM 33.8 °F 23.2 °F 30.2 °F 87% 30.07 in 10.0 mi NW 17.3 mph 23.0 mph N/A   Overcast
3:34 AM 33.8 °F 23.9 °F 30.2 °F 87% 30.07 in 10.0 mi NW 15.0 mph 24.2 mph N/A   Overcast
3:54 AM 33.8 °F 23.5 °F 30.2 °F 87% 30.07 in 5.0 mi NW 16.1 mph 23.0 mph N/A   Overcast
4:14 AM 33.8 °F 23.2 °F 30.2 °F 87% 30.07 in 7.0 mi NW 17.3 mph 23.0 mph N/A   Overcast
4:34 AM 33.8 °F 23.9 °F 30.2 °F 87% 30.07 in 10.0 mi NW 15.0 mph 20.7 mph N/A   Overcast
5:13 AM 33.8 °F 23.2 °F 30.2 °F 87% 30.08 in 10.0 mi NW 17.3 mph 21.9 mph N/A   Overcast
5:33 AM 33.8 °F 23.5 °F 28.4 °F 81% 30.09 in 10.0 mi NW 16.1 mph 23.0 mph N/A   Overcast
5:54 AM 33.8 °F 23.5 °F 28.4 °F 81% 30.09 in 10.0 mi NW 16.1 mph 21.9 mph N/A   Overcast
6:34 AM 33.8 °F 24.8 °F 28.4 °F 81% 30.10 in 10.0 mi NNW 12.7 mph 19.6 mph N/A   Overcast
6:54 AM 33.8 °F 22.8 °F 28.4 °F 81% 30.11 in 10.0 mi NNW 18.4 mph 24.2 mph N/A   Overcast
7:14 AM 33.8 °F 23.9 °F 28.4 °F 81% 30.12 in 10.0 mi NNW 15.0 mph 26.5 mph N/A   Overcast
7:54 AM 33.8 °F 23.2 °F 26.6 °F 75% 30.13 in 10.0 mi NNW 17.3 mph 21.9 mph N/A   Overcast
8:14 AM 33.8 °F 23.9 °F 28.4 °F 81% 30.14 in 10.0 mi NNW 15.0 mph 19.6 mph N/A   Overcast
8:34 AM 33.8 °F 23.2 °F 26.6 °F 75% 30.14 in 10.0 mi NNW 17.3 mph 21.9 mph N/A   Overcast
8:54 AM 33.8 °F 23.5 °F 26.6 °F 75% 30.14 in 10.0 mi NNW 16.1 mph - N/A   Overcast
9:14 AM 33.8 °F 23.2 °F 26.6 °F 75% 30.14 in 10.0 mi North 17.3 mph - N/A   Overcast
9:34 AM 33.8 °F 23.9 °F 26.6 °F 75% 30.15 in 10.0 mi NNW 15.0 mph 19.6 mph N/A   Overcast
9:54 AM 33.8 °F 22.8 °F 26.6 °F 75% 30.16 in 10.0 mi NNW 18.4 mph 21.9 mph N/A   Overcast
10:14 AM 33.8 °F 24.3 °F 26.6 °F 75% 30.16 in 10.0 mi NNW 13.8 mph 19.6 mph N/A   Overcast
10:34 AM 33.8 °F 23.5 °F 26.6 °F 75% 30.16 in 10.0 mi NNW 16.1 mph 20.7 mph N/A   Overcast
10:54 AM 33.8 °F 23.2 °F 26.6 °F 75% 30.16 in 10.0 mi NNW 17.3 mph 21.9 mph N/A   Overcast
11:14 AM 33.8 °F 22.8 °F 26.6 °F 75% 30.15 in 10.0 mi NNW 18.4 mph - N/A   Overcast
12:14 PM 35.6 °F 25.9 °F 26.6 °F 70% 30.14 in 10.0 mi NNW 16.1 mph - N/A   Overcast
12:34 PM 33.8 °F 23.5 °F 26.6 °F 75% 30.15 in 10.0 mi NNW 16.1 mph 20.7 mph N/A   Overcast
12:54 PM 33.8 °F 23.5 °F 26.6 °F 75% 30.14 in 10.0 mi NNW 16.1 mph - N/A   Overcast
1:14 PM 33.8 °F 23.9 °F 26.6 °F 75% 30.14 in 10.0 mi North 15.0 mph - N/A   Overcast
1:34 PM 33.8 °F 25.3 °F 26.6 °F 75% 30.14 in 10.0 mi NNW 11.5 mph - N/A   Overcast
2:14 PM 33.8 °F 24.3 °F 26.6 °F 75% 30.14 in 10.0 mi NNW 13.8 mph 17.3 mph N/A   Overcast
2:34 PM 33.8 °F 24.3 °F 26.6 °F 75% 30.15 in 10.0 mi NW 13.8 mph - N/A   Overcast
2:54 PM 33.8 °F 25.3 °F 26.6 °F 75% 30.15 in 10.0 mi NNW 11.5 mph - N/A   Overcast
3:14 PM 33.8 °F 25.3 °F 26.6 °F 75% 30.15 in 10.0 mi NNW 11.5 mph 16.1 mph N/A   Overcast
3:34 PM 33.8 °F 25.3 °F 26.6 °F 75% 30.16 in 10.0 mi NNW 11.5 mph - N/A   Overcast
3:54 PM 33.8 °F 27.0 °F 26.6 °F 75% 30.16 in 10.0 mi NW 8.1 mph - N/A   Overcast
4:13 PM 33.8 °F 26.4 °F 26.6 °F 75% 30.16 in 10.0 mi NW 9.2 mph - N/A   Overcast
4:34 PM 33.8 °F 27.7 °F 26.6 °F 75% 30.16 in 10.0 mi North 6.9 mph - N/A   Overcast
4:54 PM 32.0 °F 24.8 °F 26.6 °F 80% 30.16 in 10.0 mi North 8.1 mph - N/A   Overcast
5:14 PM 32.0 °F 25.6 °F 26.6 °F 80% 30.17 in 10.0 mi North 6.9 mph - N/A   Overcast
5:34 PM 32.0 °F 25.6 °F 26.6 °F 80% 30.17 in 10.0 mi North 6.9 mph - N/A   Overcast
5:54 PM 32.0 °F 25.6 °F 26.6 °F 80% 30.18 in 10.0 mi North 6.9 mph - N/A   Overcast
6:14 PM 32.0 °F 25.6 °F 26.6 °F 80% 30.18 in 10.0 mi NW 6.9 mph - N/A   Overcast
6:54 PM 32.0 °F 27.5 °F 26.6 °F 80% 30.18 in 10.0 mi NNW 4.6 mph - N/A   Overcast
7:14 PM 32.0 °F 28.7 °F 26.6 °F 80% 30.18 in 10.0 mi NNW 3.5 mph - N/A   Overcast
7:34 PM 32.0 °F 28.7 °F 26.6 °F 80% 30.18 in 10.0 mi North 3.5 mph - N/A   Overcast
7:54 PM 32.0 °F 25.6 °F 26.6 °F 80% 30.19 in 10.0 mi NNW 6.9 mph - N/A   Overcast
8:14 PM 30.2 °F 26.7 °F 26.6 °F 86% 30.18 in 10.0 mi North 3.5 mph - N/A   Overcast
8:34 PM 30.2 °F 25.4 °F 26.6 °F 86% 30.17 in 10.0 mi WNW 4.6 mph - N/A   Overcast
8:54 PM 30.2 °F 26.7 °F 26.6 °F 86% 30.16 in 10.0 mi WNW 3.5 mph - N/A   Overcast
9:14 PM 30.2 °F 26.7 °F 24.8 °F 80% 30.16 in 10.0 mi West 3.5 mph - N/A   Overcast
9:34 PM 30.2 °F - 24.8 °F 80% 30.17 in 10.0 mi Calm Calm - N/A   Overcast
9:54 PM 30.2 °F - 24.8 °F 80% 30.16 in 10.0 mi Calm Calm - N/A   Overcast
10:14 PM 30.2 °F - 24.8 °F 80% 30.16 in 10.0 mi Calm Calm - N/A   Overcast
10:34 PM 30.2 °F - 26.6 °F 86% 30.16 in 10.0 mi Calm Calm - N/A   Overcast
11:14 PM 30.2 °F - 24.8 °F 80% 30.16 in 10.0 mi Calm Calm - N/A   Overcast
11:34 PM 30.2 °F - 24.8 °F 80% 30.17 in 10.0 mi Calm Calm - N/A   Overcast
11:53 PM 30.2 °F - 24.8 °F 80% 30.16 in 10.0 mi Calm Calm - N/A   Overcast